createdAt,value
2023-04-02T00:00:19.096Z,8.94
2023-04-02T00:03:22.402Z,8.94
2023-04-02T00:06:32.882Z,9.13
2023-04-02T00:09:38.233Z,9.17
2023-04-02T00:12:40.847Z,9.28
2023-04-02T00:15:51.222Z,9.28
2023-04-02T00:18:58.033Z,9.29
2023-04-02T00:22:04.270Z,9.26
2023-04-02T00:25:13.726Z,9.30
2023-04-02T00:28:22.873Z,9.29
2023-04-02T00:31:26.160Z,9.29
2023-04-02T00:34:36.242Z,9.21
2023-04-02T00:37:39.401Z,9.27
2023-04-02T00:40:42.649Z,9.28
2023-04-02T00:43:47.300Z,9.36
2023-04-02T00:46:51.460Z,9.20
2023-04-02T00:50:02.651Z,9.23
2023-04-02T00:53:16.235Z,9.39
2023-04-02T00:56:29.315Z,9.33
2023-04-02T00:59:43.003Z,9.39
2023-04-02T01:03:16.350Z,9.37
2023-04-02T01:06:20.549Z,9.41
2023-04-02T01:10:07.533Z,9.34
2023-04-02T01:13:31.422Z,9.38
2023-04-02T01:16:50.451Z,9.41
2023-04-02T01:20:45.678Z,9.31
2023-04-02T01:24:00.308Z,9.39
2023-04-02T01:27:28.765Z,9.32
2023-04-02T01:30:34.868Z,9.15
2023-04-02T01:33:41.400Z,9.13
2023-04-02T01:36:59.251Z,9.20
2023-04-02T01:40:27.381Z,9.20
2023-04-02T01:43:46.855Z,9.24
2023-04-02T01:46:50.462Z,9.20
2023-04-02T01:49:58.314Z,9.18
2023-04-02T01:53:04.991Z,9.20
2023-04-02T01:56:07.831Z,9.13
2023-04-02T01:59:11.653Z,9.11
2023-04-02T02:02:15.423Z,9.17
2023-04-02T02:05:23.079Z,9.21
2023-04-02T02:08:41.272Z,9.13
2023-04-02T02:11:45.013Z,9.06
2023-04-02T02:14:52.287Z,9.14
2023-04-02T02:18:01.002Z,9.09
2023-04-02T02:21:08.316Z,9.20
2023-04-02T02:24:26.949Z,9.11
2023-04-02T02:27:30.151Z,9.02
2023-04-02T02:30:37.258Z,8.97
2023-04-02T02:33:49.104Z,9.02
2023-04-02T02:36:59.444Z,9.10
2023-04-02T02:40:08.371Z,9.12
2023-04-02T02:43:14.938Z,8.97
2023-04-02T02:46:22.841Z,9.02
2023-04-02T02:49:30.289Z,9.16
2023-04-02T02:52:38.850Z,9.08
2023-04-02T02:55:42.180Z,9.02
2023-04-02T02:58:45.826Z,8.94
2023-04-02T03:01:49.604Z,9.15
2023-04-02T03:04:55.106Z,8.99
2023-04-02T03:08:01.516Z,8.88
2023-04-02T03:11:23.148Z,8.75
2023-04-02T03:14:38.999Z,8.69
2023-04-02T03:17:51.399Z,8.72
2023-04-02T03:21:15.186Z,8.80
2023-04-02T03:24:29.658Z,8.67
2023-04-02T03:27:38.386Z,8.63
2023-04-02T03:30:47.702Z,8.62
2023-04-02T03:33:56.795Z,8.55
2023-04-02T03:37:10.486Z,8.62
2023-04-02T03:40:20.177Z,8.63
2023-04-02T03:43:28.819Z,8.62
2023-04-02T03:46:41.980Z,8.54
2023-04-02T03:50:00.454Z,8.43
2023-04-02T03:53:05.318Z,8.35
2023-04-02T03:56:19.316Z,8.41
2023-04-02T03:59:35.902Z,8.48
2023-04-02T04:02:44.254Z,8.41
2023-04-02T04:05:55.786Z,8.43
2023-04-02T04:09:36.290Z,8.45
2023-04-02T04:12:48.596Z,8.46
2023-04-02T04:16:02.829Z,8.45
2023-04-02T04:19:46.190Z,8.49
2023-04-02T04:22:50.617Z,8.51
2023-04-02T04:26:09.459Z,8.49
2023-04-02T04:29:45.543Z,8.49
2023-04-02T04:33:01.935Z,8.43
2023-04-02T04:36:06.358Z,8.42
2023-04-02T04:39:18.021Z,8.37
2023-04-02T04:42:27.754Z,8.25
2023-04-02T04:45:49.964Z,8.21
2023-04-02T04:49:16.080Z,8.26
2023-04-02T04:52:33.040Z,8.38
2023-04-02T04:55:42.909Z,8.47
2023-04-02T04:58:49.655Z,8.64
2023-04-02T05:02:18.624Z,8.68
2023-04-02T05:05:29.477Z,8.78
2023-04-02T05:08:37.852Z,9.02
2023-04-02T05:11:44.605Z,9.25
2023-04-02T05:15:06.646Z,9.42
2023-04-02T05:18:43.319Z,9.67
2023-04-02T05:22:20.424Z,9.78
2023-04-02T05:25:27.334Z,9.92
2023-04-02T05:28:47.115Z,9.96
2023-04-02T05:31:58.649Z,10.16
2023-04-02T05:35:05.410Z,10.32
2023-04-02T05:38:17.894Z,10.68
2023-04-02T05:41:30.497Z,11.04
2023-04-02T05:44:37.286Z,11.13
2023-04-02T05:47:43.369Z,11.16
2023-04-02T05:50:51.940Z,11.38
2023-04-02T05:53:57.341Z,11.31
2023-04-02T05:57:06.379Z,11.37
2023-04-02T06:00:15.158Z,11.04
2023-04-02T06:03:27.367Z,11.18
2023-04-02T06:06:50.700Z,11.23
2023-04-02T06:10:00.334Z,11.24
2023-04-02T06:13:06.391Z,11.54
2023-04-02T06:16:13.148Z,11.67
2023-04-02T06:19:22.507Z,11.99
2023-04-02T06:22:34.982Z,12.18
2023-04-02T06:25:58.156Z,12.24
2023-04-02T06:29:04.585Z,12.23
2023-04-02T06:32:08.531Z,12.49
2023-04-02T06:35:14.850Z,12.35
2023-04-02T06:38:25.424Z,12.51
2023-04-02T06:41:28.357Z,12.65
2023-04-02T06:44:35.124Z,12.81
2023-04-02T06:47:43.864Z,13.07
2023-04-02T06:50:54.574Z,12.99
2023-04-02T06:53:57.365Z,12.94
2023-04-02T06:57:00.134Z,13.15
2023-04-02T07:00:05.124Z,13.48
2023-04-02T07:03:18.343Z,13.68
2023-04-02T07:06:22.132Z,13.91
2023-04-02T07:09:25.997Z,14.05
2023-04-02T07:12:29.601Z,13.72
2023-04-02T07:15:33.096Z,13.60
2023-04-02T07:18:36.165Z,13.63
2023-04-02T07:21:39.625Z,13.75
2023-04-02T07:24:42.548Z,13.76
2023-04-02T07:27:45.108Z,13.89
2023-04-02T07:30:47.643Z,13.82
2023-04-02T07:33:51.182Z,13.93
2023-04-02T07:36:53.472Z,14.06
2023-04-02T07:39:56.298Z,13.97
2023-04-02T07:42:58.694Z,13.80
2023-04-02T07:46:01.861Z,13.71
2023-04-02T07:49:04.260Z,13.68
2023-04-02T07:52:07.063Z,13.59
2023-04-02T07:55:13.690Z,13.72
2023-04-02T07:58:16.539Z,13.84
2023-04-02T08:01:20.943Z,14.10
2023-04-02T08:04:23.788Z,14.08
2023-04-02T08:07:27.227Z,13.92
2023-04-02T08:10:29.848Z,14.29
2023-04-02T08:13:32.592Z,14.54
2023-04-02T08:16:48.900Z,14.57
2023-04-02T08:19:54.963Z,14.46
2023-04-02T08:22:58.271Z,14.18
2023-04-02T08:26:00.922Z,14.43
2023-04-02T08:29:03.863Z,14.00
2023-04-02T08:32:07.592Z,14.04
2023-04-02T08:35:11.964Z,14.37
2023-04-02T08:38:15.838Z,13.91
2023-04-02T08:41:27.973Z,14.31
2023-04-02T08:44:53.047Z,15.08
2023-04-02T08:47:57.559Z,15.76
2023-04-02T08:51:01.984Z,16.31
2023-04-02T08:54:15.066Z,16.26
2023-04-02T08:57:36.726Z,16.07
2023-04-02T09:00:41.721Z,16.11
2023-04-02T09:03:47.307Z,16.26
2023-04-02T09:06:52.422Z,16.60
2023-04-02T09:09:55.201Z,16.44
2023-04-02T09:12:58.722Z,16.42
2023-04-02T09:16:08.684Z,16.62
2023-04-02T09:19:15.554Z,15.98
2023-04-02T09:22:22.481Z,15.74
2023-04-02T09:25:27.223Z,15.81
2023-04-02T09:28:29.726Z,16.18
2023-04-02T09:31:39.328Z,15.73
2023-04-02T09:34:42.131Z,15.60
2023-04-02T09:37:45.255Z,15.97
2023-04-02T09:40:51.981Z,15.88
2023-04-02T09:44:15.950Z,15.77
2023-04-02T09:47:25.576Z,15.80
2023-04-02T09:50:32.943Z,15.79
2023-04-02T09:53:37.143Z,16.06
2023-04-02T09:56:40.562Z,16.07
2023-04-02T09:59:43.006Z,16.00
2023-04-02T10:02:46.644Z,15.91
2023-04-02T10:05:49.299Z,15.85
2023-04-02T10:08:51.897Z,15.97
2023-04-02T10:11:54.807Z,16.01
2023-04-02T10:14:58.305Z,16.37
2023-04-02T10:18:16.800Z,16.17
2023-04-02T10:21:25.280Z,16.13
2023-04-02T10:24:28.747Z,16.61
2023-04-02T10:27:41.540Z,16.68
2023-04-02T10:30:54.853Z,16.28
2023-04-02T10:34:03.796Z,16.50
2023-04-02T10:37:14.344Z,16.82
2023-04-02T10:40:35.102Z,17.02
2023-04-02T10:43:43.904Z,16.60
2023-04-02T10:46:51.909Z,16.54
2023-04-02T10:50:01.253Z,16.05
2023-04-02T10:53:09.549Z,16.31
2023-04-02T10:56:12.754Z,16.44
2023-04-02T10:59:26.185Z,16.30
2023-04-02T11:02:32.227Z,16.45
2023-04-02T11:05:48.222Z,16.64
2023-04-02T11:08:52.800Z,16.89
2023-04-02T11:11:56.863Z,16.48
2023-04-02T11:15:00.020Z,16.10
2023-04-02T11:18:02.541Z,16.04
2023-04-02T11:21:06.702Z,16.05
2023-04-02T11:24:21.360Z,15.96
2023-04-02T11:27:29.289Z,15.80
2023-04-02T11:30:31.731Z,15.68
2023-04-02T11:33:43.370Z,15.74
2023-04-02T11:36:50.841Z,15.84
2023-04-02T11:39:55.227Z,15.80
2023-04-02T11:43:17.538Z,15.99
2023-04-02T11:46:20.084Z,16.24
2023-04-02T11:49:36.453Z,16.77
2023-04-02T11:52:45.490Z,16.76
2023-04-02T11:55:47.987Z,16.48
2023-04-02T11:58:53.813Z,16.42
2023-04-02T12:02:05.757Z,16.43
2023-04-02T12:05:19.584Z,16.22
2023-04-02T12:08:47.252Z,16.43
2023-04-02T12:11:59.555Z,16.47
2023-04-02T12:15:02.125Z,16.68
2023-04-02T12:18:21.315Z,16.84
2023-04-02T12:21:26.002Z,16.81
2023-04-02T12:24:31.365Z,16.82
2023-04-02T12:27:38.091Z,17.07
2023-04-02T12:30:41.737Z,17.42
2023-04-02T12:33:44.538Z,17.71
2023-04-02T12:36:56.416Z,16.95
2023-04-02T12:40:00.175Z,17.01
2023-04-02T12:43:05.198Z,17.28
2023-04-02T12:46:08.530Z,17.24
2023-04-02T12:49:20.724Z,16.93
2023-04-02T12:52:28.532Z,17.39
2023-04-02T12:55:31.898Z,16.98
2023-04-02T12:58:41.691Z,16.79
2023-04-02T13:01:55.606Z,16.74
2023-04-02T13:05:03.281Z,16.80
2023-04-02T13:08:06.199Z,16.98
2023-04-02T13:11:08.741Z,16.99
2023-04-02T13:14:18.040Z,17.08
2023-04-02T13:17:59.146Z,17.14
2023-04-02T13:21:05.454Z,17.31
2023-04-02T13:24:16.743Z,17.24
2023-04-02T13:27:19.665Z,17.50
2023-04-02T13:30:24.201Z,17.23
2023-04-02T13:33:27.409Z,17.45
2023-04-02T13:36:30.702Z,17.86
2023-04-02T13:39:33.734Z,17.94
2023-04-02T13:42:36.730Z,17.30
2023-04-02T13:45:40.877Z,17.59
2023-04-02T13:48:43.240Z,17.63
2023-04-02T13:51:47.376Z,17.68
2023-04-02T13:54:51.459Z,17.75
2023-04-02T13:57:55.496Z,17.91
2023-04-02T14:00:58.074Z,18.30
2023-04-02T14:04:01.743Z,18.30
2023-04-02T14:07:04.076Z,18.22
2023-04-02T14:10:31.890Z,17.97
2023-04-02T14:13:43.638Z,18.30
2023-04-02T14:16:46.487Z,18.69
2023-04-02T14:19:51.993Z,18.48
2023-04-02T14:23:00.466Z,17.92
2023-04-02T14:26:02.861Z,18.04
2023-04-02T14:29:27.517Z,18.78
2023-04-02T14:32:43.126Z,18.95
2023-04-02T14:35:47.106Z,17.73
2023-04-02T14:38:55.028Z,18.97
2023-04-02T14:41:57.862Z,19.21
2023-04-02T14:45:05.374Z,19.39
2023-04-02T14:48:24.737Z,18.80
2023-04-02T14:51:38.173Z,17.29
2023-04-02T14:55:00.329Z,15.86
2023-04-02T14:58:04.751Z,15.72
2023-04-02T15:01:27.844Z,15.05
2023-04-02T15:04:36.955Z,14.59
2023-04-02T15:07:43.651Z,14.02
2023-04-02T15:10:54.284Z,13.52
2023-04-02T15:14:05.340Z,13.00
2023-04-02T15:17:10.425Z,12.69
2023-04-02T15:20:15.964Z,12.48
2023-04-02T15:23:41.310Z,12.00
2023-04-02T15:26:56.096Z,11.30
2023-04-02T15:30:17.331Z,10.67
2023-04-02T15:33:38.081Z,10.39
2023-04-02T15:36:49.192Z,10.09
2023-04-02T15:39:58.666Z,9.96
2023-04-02T15:43:21.343Z,9.99
2023-04-02T15:46:42.387Z,9.90
2023-04-02T15:49:51.002Z,9.99
2023-04-02T15:52:59.047Z,10.18
2023-04-02T15:56:19.932Z,10.40
2023-04-02T15:59:22.768Z,10.65
2023-04-02T16:02:28.194Z,10.89
2023-04-02T16:05:42.247Z,11.15
2023-04-02T16:08:57.345Z,11.32
2023-04-02T16:12:09.159Z,13.54
2023-04-02T16:15:16.493Z,15.98
2023-04-02T16:18:30.772Z,17.98
2023-04-02T16:21:35.206Z,19.40
2023-04-02T16:24:37.918Z,19.64
2023-04-02T16:27:43.221Z,20.12
2023-04-02T16:30:49.429Z,19.95
2023-04-02T16:34:00.549Z,19.25
2023-04-02T16:37:21.748Z,18.85
2023-04-02T16:40:24.174Z,17.93
2023-04-02T16:43:50.122Z,16.35
2023-04-02T16:47:18.932Z,15.56
2023-04-02T16:50:21.765Z,14.66
2023-04-02T16:53:27.157Z,14.14
2023-04-02T16:56:45.054Z,13.70
2023-04-02T17:00:03.852Z,13.17
2023-04-02T17:03:06.675Z,12.81
2023-04-02T17:06:15.406Z,12.42
2023-04-02T17:09:22.707Z,12.26
2023-04-02T17:12:46.150Z,12.19
2023-04-02T17:15:51.335Z,12.02
2023-04-02T17:18:54.990Z,11.81
2023-04-02T17:22:00.587Z,11.63
2023-04-02T17:25:04.356Z,11.25
2023-04-02T17:28:12.849Z,11.14
2023-04-02T17:31:18.876Z,11.01
2023-04-02T17:34:24.002Z,10.91
2023-04-02T17:37:29.407Z,10.72
2023-04-02T17:40:37.898Z,10.57
2023-04-02T17:43:49.800Z,10.36
2023-04-02T17:47:03.754Z,10.19
2023-04-02T17:50:20.075Z,9.98
2023-04-02T17:53:28.586Z,9.78
2023-04-02T17:56:41.366Z,9.65
2023-04-02T17:59:51.849Z,9.56
2023-04-02T18:02:57.234Z,9.53
2023-04-02T18:05:59.917Z,9.33
2023-04-02T18:09:03.063Z,9.25
2023-04-02T18:12:05.906Z,9.24
2023-04-02T18:15:26.954Z,9.16
2023-04-02T18:18:32.677Z,9.06
2023-04-02T18:21:51.329Z,8.96
2023-04-02T18:25:04.838Z,8.94
2023-04-02T18:28:21.932Z,8.80
2023-04-02T18:31:34.056Z,8.73
2023-04-02T18:34:55.289Z,8.63
2023-04-02T18:37:57.936Z,8.60
2023-04-02T18:41:09.187Z,8.58
2023-04-02T18:44:21.388Z,8.59
2023-04-02T18:47:29.110Z,8.53
2023-04-02T18:50:33.699Z,8.51
2023-04-02T18:53:36.541Z,8.46
2023-04-02T18:56:40.485Z,8.50
2023-04-02T18:59:51.940Z,8.48
2023-04-02T19:02:57.847Z,8.39
2023-04-02T19:06:16.177Z,8.30
2023-04-02T19:09:24.714Z,8.29
2023-04-02T19:12:28.281Z,8.19
2023-04-02T19:15:50.435Z,8.10
2023-04-02T19:19:01.958Z,8.05
2023-04-02T19:22:10.640Z,7.93
2023-04-02T19:25:16.591Z,7.91
2023-04-02T19:28:37.910Z,7.84
2023-04-02T19:31:40.490Z,7.65
2023-04-02T19:34:47.721Z,7.51
2023-04-02T19:38:13.322Z,7.55
2023-04-02T19:41:22.483Z,7.46
2023-04-02T19:44:24.969Z,7.27
2023-04-02T19:47:27.645Z,7.29
2023-04-02T19:50:30.181Z,7.25
2023-04-02T19:53:33.260Z,7.26
2023-04-02T19:56:38.544Z,7.32
2023-04-02T19:59:41.364Z,7.35
2023-04-02T20:02:43.861Z,7.40
2023-04-02T20:05:46.708Z,7.55
2023-04-02T20:08:49.021Z,7.54
2023-04-02T20:11:51.706Z,7.51
2023-04-02T20:14:54.044Z,7.63
2023-04-02T20:17:56.673Z,7.55
2023-04-02T20:21:03.087Z,7.53
2023-04-02T20:24:07.006Z,7.59
2023-04-02T20:27:09.295Z,7.69
2023-04-02T20:30:12.210Z,7.72
2023-04-02T20:33:14.662Z,7.70
2023-04-02T20:36:17.428Z,7.71
2023-04-02T20:39:20.449Z,7.76
2023-04-02T20:42:23.653Z,7.60
2023-04-02T20:45:29.158Z,7.57
2023-04-02T20:48:32.765Z,7.55
2023-04-02T20:51:35.193Z,7.55
2023-04-02T20:54:37.898Z,7.64
2023-04-02T20:57:40.209Z,7.61
2023-04-02T21:00:43.719Z,7.55
2023-04-02T21:03:46.430Z,7.50
2023-04-02T21:06:49.127Z,7.53
2023-04-02T21:09:54.407Z,7.47
2023-04-02T21:12:57.105Z,7.44
2023-04-02T21:16:00.190Z,7.39
2023-04-02T21:19:04.848Z,7.48
2023-04-02T21:22:07.905Z,7.44
2023-04-02T21:25:10.554Z,7.37
2023-04-02T21:28:12.882Z,7.30
2023-04-02T21:31:16.984Z,7.31
2023-04-02T21:34:19.464Z,7.25
2023-04-02T21:37:22.024Z,7.19
2023-04-02T21:40:24.348Z,7.16
2023-04-02T21:43:26.918Z,7.20
2023-04-02T21:46:31.168Z,7.22
2023-04-02T21:49:33.853Z,7.17
2023-04-02T21:52:36.329Z,7.07
2023-04-02T21:55:38.889Z,7.07
2023-04-02T21:58:41.411Z,7.01
2023-04-02T22:01:45.520Z,7.05
2023-04-02T22:04:48.109Z,7.09
2023-04-02T22:07:50.474Z,6.95
2023-04-02T22:10:53.076Z,6.91
2023-04-02T22:13:55.567Z,6.88
2023-04-02T22:17:01.370Z,6.83
2023-04-02T22:20:04.942Z,6.87
2023-04-02T22:23:07.771Z,7.01
2023-04-02T22:26:10.650Z,6.96
2023-04-02T22:29:13.968Z,6.91
2023-04-02T22:32:16.318Z,6.85
2023-04-02T22:35:18.829Z,6.75
2023-04-02T22:38:21.293Z,6.77
2023-04-02T22:41:28.348Z,6.82
2023-04-02T22:44:31.036Z,6.86
2023-04-02T22:47:33.661Z,6.85
2023-04-02T22:50:36.250Z,6.87
2023-04-02T22:53:39.591Z,6.77
2023-04-02T22:56:41.883Z,6.74
2023-04-02T22:59:44.428Z,6.64
2023-04-02T23:02:46.819Z,6.70
2023-04-02T23:06:03.264Z,6.68
2023-04-02T23:09:05.934Z,6.66
2023-04-02T23:12:08.568Z,6.62
2023-04-02T23:15:11.093Z,6.68
2023-04-02T23:18:13.834Z,6.65
2023-04-02T23:21:16.903Z,6.57
2023-04-02T23:24:19.745Z,6.56
2023-04-02T23:27:22.385Z,6.55
2023-04-02T23:30:25.098Z,6.58
2023-04-02T23:33:27.478Z,6.52
2023-04-02T23:36:31.722Z,6.50
2023-04-02T23:39:34.075Z,6.43
2023-04-02T23:42:36.733Z,6.43
2023-04-02T23:45:39.571Z,6.44
2023-04-02T23:48:42.368Z,6.37
2023-04-02T23:51:44.837Z,6.44
2023-04-02T23:54:47.718Z,6.29
2023-04-02T23:57:50.160Z,6.33
